Time;durP1;ratioP1;P1;durP2;ratioP2;P2;SDS_P1;SDS_P2;PMS_P1;PMS_P2;Temp;Humidity;BMP_temperature;BMP_pressure;BME280_temperature;BME280_humidity;BME280_pressure;Samples;Min_cycle;Max_cycle;Signal;HPM_P1;HPM_P2
2022/07/20 00:00:59;;;;;;;5.90;2.20;;;;;;;25.78;31.10;99956.63;4496239;31;33649;-58
2022/07/20 00:03:27;;;;;;;5.05;1.90;;;;;;;25.53;31.67;99961.81;4497456;31;33429;-59
2022/07/20 00:05:55;;;;;;;5.62;2.05;;;;;;;25.53;31.76;99970.06;4500295;31;35228;-59
2022/07/20 00:11:21;;;;;;;4.68;2.22;;;;;;;25.38;32.12;99974.84;4497860;31;33522;-59
2022/07/20 00:13:54;;;;;;;8.85;2.35;;;;;;;25.12;32.76;99970.09;4497288;31;33854;-58
2022/07/20 00:16:24;;;;;;;3.72;2.10;;;;;;;25.16;32.46;99967.81;4496265;31;34150;-59
2022/07/20 00:18:52;;;;;;;3.55;2.00;;;;;;;25.25;32.07;99967.41;4493666;31;32078;-60
2022/07/20 00:21:20;;;;;;;6.30;2.08;;;;;;;25.28;31.55;99961.53;4496368;31;34836;-58
2022/07/20 00:23:48;;;;;;;5.25;2.03;;;;;;;25.28;31.33;99964.28;4498285;31;34183;-59
2022/07/20 00:26:16;;;;;;;4.85;2.05;;;;;;;25.23;31.45;99964.06;4497341;31;33636;-59
2022/07/20 00:28:44;;;;;;;3.45;1.85;;;;;;;25.30;31.21;99964.91;4499017;31;33559;-59
2022/07/20 00:31:12;;;;;;;5.28;1.87;;;;;;;25.41;30.78;99962.63;4493109;31;34760;-60
2022/07/20 00:33:39;;;;;;;4.03;1.70;;;;;;;25.55;30.44;99961.59;4492513;31;34859;-62
2022/07/20 00:36:07;;;;;;;5.03;1.80;;;;;;;25.66;30.56;99962.91;4493765;31;33863;-59
2022/07/20 00:38:35;;;;;;;3.67;1.87;;;;;;;25.73;30.73;99959.12;4492643;31;33578;-61
2022/07/20 00:41:03;;;;;;;4.32;1.80;;;;;;;25.76;30.76;99961.44;4499094;31;32692;-60
2022/07/20 00:44:08;;;;;;;4.68;1.92;;;;;;;25.86;30.72;99963.81;4498267;31;35254;-58
2022/07/20 00:46:40;;;;;;;2.83;1.73;;;;;;;25.72;30.44;99964.81;4499596;31;33680;-59
2022/07/20 00:49:10;;;;;;;3.28;1.80;;;;;;;25.63;30.77;99961.44;4496880;31;33389;-58
2022/07/20 00:51:41;;;;;;;6.22;2.33;;;;;;;25.50;31.40;99966.88;4493078;31;35040;-58
2022/07/20 00:54:09;;;;;;;3.78;1.90;;;;;;;25.51;31.67;99965.81;4496915;31;32815;-58
2022/07/20 00:56:37;;;;;;;6.57;2.60;;;;;;;25.39;31.96;99961.97;4495876;31;35174;-58
2022/07/20 00:59:07;;;;;;;6.40;2.10;;;;;;;25.34;31.78;99954.41;4495422;31;33455;-59
2022/07/20 01:01:35;;;;;;;7.70;2.08;;;;;;;25.35;31.49;99963.44;4495941;31;32621;-59
2022/07/20 01:04:03;;;;;;;4.28;2.00;;;;;;;25.12;31.69;99958.28;4498040;31;34862;-59
2022/07/20 01:06:31;;;;;;;4.68;2.10;;;;;;;24.96;32.07;99954.84;4495453;31;33474;-59
2022/07/20 01:08:59;;;;;;;5.20;2.40;;;;;;;25.02;32.12;99966.88;4490657;31;33018;-59
2022/07/20 01:11:26;;;;;;;3.37;1.67;;;;;;;25.05;32.20;99966.47;4497975;31;35208;-59
2022/07/20 01:14:05;;;;;;;6.10;2.55;;;;;;;25.01;32.26;99966.03;4495753;31;33871;-58
2022/07/20 01:16:33;;;;;;;4.07;1.87;;;;;;;24.99;32.14;99962.66;4500596;31;34872;-58
2022/07/20 01:19:02;;;;;;;3.58;1.90;;;;;;;24.90;32.19;99963.84;4500674;31;32695;-59
2022/07/20 01:21:30;;;;;;;6.30;2.20;;;;;;;24.89;32.36;99962.19;4499651;31;33759;-58
2022/07/20 01:23:57;;;;;;;5.20;2.50;;;;;;;24.87;32.50;99967.84;4496634;31;33881;-58
2022/07/20 01:26:25;;;;;;;5.07;2.12;;;;;;;24.81;32.31;99965.91;4499705;31;35214;-58
2022/07/20 01:28:52;;;;;;;3.90;1.83;;;;;;;24.86;32.26;99963.41;4497745;31;34475;-58
2022/07/20 01:31:21;;;;;;;5.97;2.10;;;;;;;24.76;32.32;99965.69;4486908;31;34874;-58
2022/07/20 01:33:49;;;;;;;4.30;2.22;;;;;;;24.89;32.14;99970.37;4500434;31;35003;-57
2022/07/20 01:36:16;;;;;;;5.53;1.95;;;;;;;24.93;32.27;99971.66;4496895;31;34099;-58
2022/07/20 01:38:44;;;;;;;7.07;2.47;;;;;;;24.83;32.45;99972.03;4497984;31;33546;-58
2022/07/20 01:41:12;;;;;;;3.75;1.73;;;;;;;24.61;32.93;99970.44;4499356;31;35077;-58
2022/07/20 01:43:39;;;;;;;5.15;2.20;;;;;;;24.54;33.04;99969.53;4501332;31;35263;-59
2022/07/20 01:46:07;;;;;;;7.85;2.20;;;;;;;24.55;32.96;99972.06;4497398;31;35019;-59
2022/07/20 01:48:35;;;;;;;4.55;1.70;;;;;;;24.64;32.86;99972.75;4501011;31;34650;-58
2022/07/20 01:51:03;;;;;;;6.07;2.20;;;;;;;24.60;32.83;99968.75;4499057;31;33784;-58
2022/07/20 01:53:30;;;;;;;3.97;2.00;;;;;;;24.52;32.96;99974.34;4499196;31;32943;-59
2022/07/20 01:55:58;;;;;;;6.22;2.20;;;;;;;24.47;33.05;99968.66;4490008;31;32870;-59
2022/07/20 01:58:25;;;;;;;5.85;2.60;;;;;;;24.40;33.34;99969.41;4499037;31;34587;-59
2022/07/20 02:00:53;;;;;;;6.10;1.95;;;;;;;24.33;33.54;99973.13;4495958;31;33831;-58
2022/07/20 02:03:21;;;;;;;4.62;2.12;;;;;;;24.24;33.88;99964.25;4497588;31;35266;-58
2022/07/20 02:05:49;;;;;;;5.05;2.10;;;;;;;24.19;34.11;99972.19;4497119;31;35231;-59
2022/07/20 02:08:16;;;;;;;7.03;1.92;;;;;;;24.02;34.45;99971.63;4495546;31;35053;-58
2022/07/20 02:10:44;;;;;;;4.35;1.77;;;;;;;23.90;34.89;99974.03;4499858;31;33835;-57
2022/07/20 02:13:11;;;;;;;7.68;2.10;;;;;;;23.97;34.70;99970.50;4496534;31;33752;-58
2022/07/20 02:18:26;;;;;;;6.95;2.50;;;;;;;24.04;34.48;99975.00;4496221;31;31950;-58
2022/07/20 02:20:53;;;;;;;3.80;2.00;;;;;;;24.15;34.13;99982.69;4500640;31;33777;-58
2022/07/20 02:23:21;;;;;;;5.68;1.75;;;;;;;24.20;34.11;99981.22;4499213;31;34969;-58
2022/07/20 02:25:48;;;;;;;4.62;2.15;;;;;;;24.18;34.12;99970.50;4498704;31;33888;-59
2022/07/20 02:28:16;;;;;;;5.43;2.37;;;;;;;24.15;34.08;99968.16;4496862;31;33640;-58
2022/07/20 02:30:44;;;;;;;5.25;2.40;;;;;;;24.22;34.02;99971.78;4500759;31;34985;-58
2022/07/20 02:33:11;;;;;;;9.13;2.45;;;;;;;24.30;33.80;99973.53;4497278;31;35395;-58
2022/07/20 02:35:39;;;;;;;5.75;2.37;;;;;;;24.25;33.98;99965.94;4498622;31;35165;-58
2022/07/20 02:38:06;;;;;;;4.65;2.47;;;;;;;24.21;34.29;99970.09;4498240;31;34354;-58
2022/07/20 02:40:34;;;;;;;4.18;1.77;;;;;;;24.13;34.26;99967.50;4499818;31;35042;-58
2022/07/20 02:43:02;;;;;;;4.22;1.90;;;;;;;24.25;33.92;99962.34;4500981;31;32686;-58
2022/07/20 02:45:29;;;;;;;5.90;2.62;;;;;;;24.15;34.13;99969.00;4499184;31;34256;-58
2022/07/20 02:48:02;;;;;;;7.75;2.50;;;;;;;24.17;34.14;99969.66;4499315;31;33902;-58
2022/07/20 02:50:36;;;;;;;4.95;2.33;;;;;;;24.19;34.09;99966.72;4500261;31;32470;-58
2022/07/20 02:53:05;;;;;;;5.13;2.63;;;;;;;24.25;34.01;99968.66;4496485;31;34016;-58
2022/07/20 02:55:33;;;;;;;8.95;2.20;;;;;;;24.31;34.02;99969.75;4496600;31;33819;-59
2022/07/20 02:58:00;;;;;;;5.82;2.30;;;;;;;24.26;34.27;99970.34;4499222;31;33703;-58
2022/07/20 03:00:28;;;;;;;5.12;2.50;;;;;;;24.17;34.39;99966.06;4499555;31;33877;-59
2022/07/20 03:02:56;;;;;;;5.70;2.42;;;;;;;24.13;34.59;99975.72;4495850;31;35320;-59
2022/07/20 03:05:24;;;;;;;6.50;2.28;;;;;;;24.20;34.43;99976.59;4498892;31;33096;-59
2022/07/20 03:07:52;;;;;;;7.72;2.67;;;;;;;24.23;34.21;99978.94;4499240;31;33519;-58
2022/07/20 03:10:19;;;;;;;4.93;2.35;;;;;;;24.21;34.21;99974.75;4500858;31;34003;-58
2022/07/20 03:12:47;;;;;;;5.05;2.28;;;;;;;24.22;34.02;99973.69;4499256;31;32296;-58
2022/07/20 03:15:15;;;;;;;5.53;2.30;;;;;;;24.13;34.28;99978.44;4495853;31;33651;-57
2022/07/20 03:17:51;;;;;;;4.93;2.20;;;;;;;24.01;34.63;99974.53;4499154;31;33581;-58
2022/07/20 03:20:27;;;;;;;4.20;2.00;;;;;;;24.05;34.62;99975.88;4497319;31;34888;-58
2022/07/20 03:22:56;;;;;;;5.45;2.05;;;;;;;24.03;34.57;99977.94;4500977;31;34114;-58
2022/07/20 03:25:24;;;;;;;5.93;2.65;;;;;;;24.07;34.42;99984.69;4496618;31;33030;-58
2022/07/20 03:27:53;;;;;;;5.32;2.30;;;;;;;24.04;34.39;99985.09;4500391;31;34743;-58
2022/07/20 03:30:22;;;;;;;5.70;2.40;;;;;;;23.87;34.73;99993.56;4498360;31;33627;-58
2022/07/20 03:32:49;;;;;;;6.15;2.20;;;;;;;23.91;34.61;99988.53;4500789;31;33553;-58
2022/07/20 03:35:17;;;;;;;6.72;2.10;;;;;;;23.89;34.80;99988.75;4496193;31;34006;-58
2022/07/20 03:37:45;;;;;;;6.87;2.33;;;;;;;23.97;34.60;99986.91;4499068;31;33570;-58
2022/07/20 03:40:13;;;;;;;5.62;2.33;;;;;;;24.02;34.48;99995.38;4499497;31;34608;-58
2022/07/20 03:42:41;;;;;;;5.35;2.50;;;;;;;23.96;34.48;99999.75;4500203;31;35100;-59
2022/07/20 03:45:09;;;;;;;4.35;2.05;;;;;;;23.94;34.67;100007.28;4496072;31;33014;-58
2022/07/20 03:47:37;;;;;;;12.25;2.35;;;;;;;24.00;34.68;99998.31;4498957;31;34791;-59
2022/07/20 03:50:04;;;;;;;6.25;2.35;;;;;;;24.06;34.53;99996.69;4494939;31;33599;-58
2022/07/20 03:52:32;;;;;;;5.70;2.20;;;;;;;24.13;34.42;99998.41;4499357;31;34089;-59
2022/07/20 03:55:00;;;;;;;4.60;2.08;;;;;;;24.17;34.24;100007.06;4500499;31;32622;-58
2022/07/20 03:57:28;;;;;;;3.03;1.58;;;;;;;24.23;34.25;100002.72;4492928;31;33860;-59
2022/07/20 03:59:56;;;;;;;5.22;2.62;;;;;;;24.31;34.10;100010.78;4499944;31;34679;-58
2022/07/20 04:02:23;;;;;;;6.05;2.47;;;;;;;24.34;33.96;100003.03;4498183;31;35166;-59
2022/07/20 04:04:52;;;;;;;8.77;2.20;;;;;;;24.35;34.09;100001.97;4489618;31;32867;-59
2022/07/20 04:07:19;;;;;;;6.40;2.30;;;;;;;24.45;34.03;100003.56;4494578;31;33668;-59
2022/07/20 04:09:47;;;;;;;7.95;2.50;;;;;;;24.52;33.95;100010.75;4500411;31;35008;-57
2022/07/20 04:12:23;;;;;;;5.90;2.50;;;;;;;24.64;33.83;100011.91;4499576;31;34996;-58
2022/07/20 04:14:52;;;;;;;6.07;2.72;;;;;;;24.75;34.09;100016.00;4498474;31;34890;-58
2022/07/20 04:17:20;;;;;;;7.53;2.37;;;;;;;24.72;34.31;100015.53;4499301;31;33580;-58
2022/07/20 04:19:48;;;;;;;4.35;2.03;;;;;;;24.76;34.17;100009.47;4495167;31;32861;-59
2022/07/20 04:22:16;;;;;;;6.28;2.28;;;;;;;24.68;34.40;100012.34;4498197;31;34002;-58
2022/07/20 04:24:44;;;;;;;5.30;2.65;;;;;;;24.85;33.76;100010.19;4496053;31;33834;-59
2022/07/20 04:27:11;;;;;;;5.53;2.37;;;;;;;24.93;33.57;100014.63;4499969;31;33703;-58
2022/07/20 04:29:39;;;;;;;4.55;2.53;;;;;;;25.03;33.22;100009.63;4497099;31;32620;-59
2022/07/20 04:32:07;;;;;;;5.57;2.62;;;;;;;25.09;33.30;100017.03;4498581;31;33728;-58
2022/07/20 04:34:34;;;;;;;5.37;2.37;;;;;;;25.21;33.10;100017.34;4496025;31;35267;-58
2022/07/20 04:37:06;;;;;;;5.47;2.65;;;;;;;25.20;33.04;100012.91;4487473;31;33693;-60
2022/07/20 04:39:34;;;;;;;6.35;2.35;;;;;;;25.38;32.70;100015.94;4497248;31;34743;-58
2022/07/20 04:42:02;;;;;;;6.78;2.47;;;;;;;25.45;32.88;100019.53;4495540;31;34278;-59
2022/07/20 04:44:30;;;;;;;6.80;2.87;;;;;;;25.55;32.49;100014.53;4499317;31;32939;-60
2022/07/20 04:46:57;;;;;;;7.37;2.75;;;;;;;25.66;32.93;100023.22;4498749;31;33620;-62
2022/07/20 04:49:25;;;;;;;7.20;2.80;;;;;;;25.76;32.93;100013.53;4497284;31;33727;-60
2022/07/20 04:51:53;;;;;;;12.70;2.87;;;;;;;25.84;32.92;100019.91;4494047;31;33624;-60
2022/07/20 04:54:21;;;;;;;6.95;2.78;;;;;;;26.05;32.78;100016.16;4499645;31;34327;-60
2022/07/20 04:56:49;;;;;;;9.25;2.90;;;;;;;26.22;32.89;100021.00;4499897;31;34805;-59
2022/07/20 04:59:17;;;;;;;10.73;3.30;;;;;;;26.34;32.72;100023.16;4500060;31;33806;-57
2022/07/20 05:01:45;;;;;;;7.30;2.30;;;;;;;26.39;32.55;100018.72;4500520;31;33927;-60
2022/07/20 05:04:13;;;;;;;11.77;3.03;;;;;;;26.55;32.63;100022.97;4499585;31;34325;-60
2022/07/20 05:06:42;;;;;;;5.85;2.60;;;;;;;26.63;32.35;100017.25;4500547;31;34920;-58
2022/07/20 05:09:10;;;;;;;4.80;2.35;;;;;;;26.71;32.52;100025.28;4499331;31;35009;-60
2022/07/20 05:11:38;;;;;;;6.68;2.70;;;;;;;26.90;32.83;100028.19;4497047;31;35146;-58
2022/07/20 05:14:09;;;;;;;6.40;2.12;;;;;;;26.89;33.11;100032.84;4501330;31;35251;-58
2022/07/20 05:16:37;;;;;;;6.00;2.37;;;;;;;27.04;32.89;100029.00;4497802;31;34674;-58
2022/07/20 05:19:05;;;;;;;6.43;2.53;;;;;;;27.10;32.01;100029.00;4499090;31;34807;-58
2022/07/20 05:21:40;;;;;;;7.45;2.92;;;;;;;27.29;31.24;100029.19;4500751;31;33847;-58
2022/07/20 05:24:08;;;;;;;6.95;2.67;;;;;;;27.44;31.22;100027.00;4499848;31;33887;-60
2022/07/20 05:26:36;;;;;;;6.70;2.67;;;;;;;27.41;32.13;100022.75;4496573;31;33402;-58
2022/07/20 05:29:03;;;;;;;6.07;2.47;;;;;;;27.39;32.28;100033.16;4496039;31;32771;-60
2022/07/20 05:31:31;;;;;;;8.00;2.75;;;;;;;27.71;31.94;100035.12;4493647;31;34070;-58
2022/07/20 05:33:59;;;;;;;6.18;2.92;;;;;;;27.69;32.10;100034.50;4498540;31;35076;-59
2022/07/20 05:36:27;;;;;;;8.43;2.70;;;;;;;27.85;32.61;100031.25;4487661;31;34526;-59
2022/07/20 05:38:54;;;;;;;4.53;2.08;;;;;;;27.85;32.15;100037.59;4498775;31;32992;-60
2022/07/20 05:41:23;;;;;;;7.10;2.55;;;;;;;27.95;30.53;100031.62;4485205;31;35181;-61
2022/07/20 05:43:51;;;;;;;9.55;2.58;;;;;;;28.01;30.75;100039.00;4485639;32;34038;-58
2022/07/20 05:46:18;;;;;;;8.05;2.42;;;;;;;28.04;30.44;100034.97;4486056;31;32492;-59
2022/07/20 05:48:46;;;;;;;8.25;2.37;;;;;;;28.08;30.32;100039.78;4498290;31;34909;-58
2022/07/20 05:51:14;;;;;;;8.13;2.10;;;;;;;27.54;30.89;100043.00;4499608;31;34053;-60
2022/07/20 05:53:57;;;;;;;5.97;2.25;;;;;;;27.99;30.83;100034.75;4497343;31;34007;-58
2022/07/20 05:56:25;;;;;;;6.82;2.42;;;;;;;28.17;31.62;100036.78;4492786;31;33545;-58
2022/07/20 05:58:52;;;;;;;11.48;2.60;;;;;;;28.40;30.93;100034.28;4496713;31;32799;-58
2022/07/20 06:01:20;;;;;;;8.88;2.22;;;;;;;28.48;30.61;100033.19;4500600;31;33769;-58
2022/07/20 06:03:48;;;;;;;8.57;2.55;;;;;;;28.39;30.45;100034.50;4499256;31;35008;-62
2022/07/20 06:06:16;;;;;;;9.77;2.35;;;;;;;28.33;31.73;100038.97;4495991;31;33875;-58
2022/07/20 06:08:44;;;;;;;7.30;2.87;;;;;;;28.46;30.89;100035.31;4494662;31;33530;-57
2022/07/20 06:11:32;;;;;;;6.65;2.58;;;;;;;28.64;30.60;100031.78;4495226;31;33797;-58
2022/07/20 06:14:00;;;;;;;7.28;2.33;;;;;;;28.53;29.84;100034.16;4493494;31;34009;-59
2022/07/20 06:16:27;;;;;;;7.57;2.22;;;;;;;28.56;30.53;100035.62;4491529;31;33486;-59
2022/07/20 06:18:55;;;;;;;5.68;1.87;;;;;;;28.71;29.84;100029.78;4499533;31;33664;-61
2022/07/20 06:21:23;;;;;;;5.47;2.30;;;;;;;28.66;28.77;100029.63;4500849;31;34037;-58
2022/07/20 06:23:50;;;;;;;4.50;2.10;;;;;;;28.85;29.50;100042.34;4496993;31;34249;-59
2022/07/20 06:26:18;;;;;;;8.95;3.17;;;;;;;28.88;30.51;100044.66;4494402;31;33504;-61
2022/07/20 06:28:46;;;;;;;8.32;2.12;;;;;;;28.81;29.24;100032.88;4490403;31;34997;-58
2022/07/20 06:31:14;;;;;;;8.05;2.30;;;;;;;29.06;28.32;100038.38;4489133;31;32811;-58
2022/07/20 06:33:42;;;;;;;7.37;2.45;;;;;;;29.15;28.87;100047.16;4474413;31;32645;-58
2022/07/20 06:36:09;;;;;;;7.10;2.35;;;;;;;29.22;28.98;100048.78;4486150;31;33647;-58
2022/07/20 06:38:37;;;;;;;7.47;2.20;;;;;;;28.76;28.96;100044.56;4486986;31;32473;-59
2022/07/20 06:41:05;;;;;;;7.35;2.33;;;;;;;29.12;28.76;100042.97;4484425;31;35301;-60
2022/07/20 06:43:33;;;;;;;7.28;2.60;;;;;;;29.42;28.53;100045.78;4488918;31;34961;-60
2022/07/20 06:46:00;;;;;;;4.28;1.92;;;;;;;29.29;28.29;100037.69;4482004;31;34420;-59
2022/07/20 06:48:28;;;;;;;7.20;2.08;;;;;;;29.27;27.95;100037.06;4481939;31;32631;-58
2022/07/20 06:50:56;;;;;;;5.43;2.33;;;;;;;29.46;28.06;100032.38;4485096;31;33748;-58
2022/07/20 06:53:23;;;;;;;13.25;2.15;;;;;;;29.64;27.80;100035.16;4484186;31;33287;-60
2022/07/20 06:55:51;;;;;;;11.55;2.45;;;;;;;29.67;28.45;100031.09;4486296;31;31926;-60
2022/07/20 06:58:19;;;;;;;7.22;2.10;;;;;;;29.68;27.95;100038.28;4483565;31;33215;-60
2022/07/20 07:00:46;;;;;;;9.43;2.35;;;;;;;29.80;27.40;100036.41;4484163;31;33824;-59
2022/07/20 07:03:14;;;;;;;7.35;2.70;;;;;;;29.73;28.01;100029.28;4484589;31;34184;-59
2022/07/20 07:05:42;;;;;;;5.43;2.00;;;;;;;29.94;27.80;100028.78;4485597;31;33922;-59
2022/07/20 07:08:12;;;;;;;6.20;2.80;;;;;;;29.99;27.82;100028.94;4484133;31;33309;-60
2022/07/20 07:10:40;;;;;;;8.18;2.53;;;;;;;30.25;27.07;100032.38;4484168;31;32524;-60
2022/07/20 07:13:07;;;;;;;7.10;2.33;;;;;;;30.15;27.25;100028.25;4483802;31;35538;-58
2022/07/20 07:15:36;;;;;;;5.62;2.60;;;;;;;30.39;26.89;100034.69;4486787;31;34433;-61
2022/07/20 07:18:04;;;;;;;4.70;1.95;;;;;;;30.14;27.84;100034.84;4483880;31;32904;-59
2022/07/20 07:20:32;;;;;;;7.03;2.42;;;;;;;30.71;25.86;100037.13;4483642;31;32525;-61
2022/07/20 07:22:59;;;;;;;7.07;2.60;;;;;;;30.70;26.07;100029.91;4484904;31;34157;-58
2022/07/20 07:25:27;;;;;;;4.03;2.05;;;;;;;30.78;25.86;100032.34;4486817;31;31947;-61
2022/07/20 07:27:56;;;;;;;7.30;2.58;;;;;;;30.78;25.57;100034.25;4487005;31;34303;-58
2022/07/20 07:32:51;;;;;;;5.50;2.12;;;;;;;31.29;24.41;100033.47;4457399;31;869886;-60
2022/07/20 07:35:19;;;;;;;5.72;2.05;;;;;;;31.29;24.41;100033.47;4472703;32;31649;-59
2022/07/20 07:37:47;;;;;;;8.07;2.28;;;;;;;31.13;25.37;100036.16;4463335;32;34966;-59
2022/07/20 07:40:16;;;;;;;6.75;2.15;;;;;;;31.49;24.71;100035.03;4461426;32;32465;-59
2022/07/20 07:42:43;;;;;;;7.75;2.03;;;;;;;31.62;24.98;100032.00;4466813;32;34263;-61
2022/07/20 07:45:11;;;;;;;5.28;1.87;;;;;;;31.57;25.22;100036.59;4461700;32;33329;-60
2022/07/20 07:47:41;;;;;;;12.55;3.53;;;;;;;31.41;24.20;100038.19;4461640;32;35168;-60
2022/07/20 07:50:09;;;;;;;8.30;2.10;;;;;;;31.47;25.26;100035.28;4455959;32;35526;-59
2022/07/20 07:52:36;;;;;;;5.18;2.30;;;;;;;31.87;24.02;100031.62;4444373;32;34260;-59
2022/07/20 07:55:22;;;;;;;5.72;1.77;;;;;;;32.17;23.30;100027.81;4459742;32;32970;-59
2022/07/20 07:57:49;;;;;;;6.30;1.60;;;;;;;32.22;23.02;100016.78;4457012;32;33784;-60
2022/07/20 08:00:17;;;;;;;7.35;2.00;;;;;;;32.28;23.36;100023.25;4441966;32;33775;-60
2022/07/20 08:02:45;;;;;;;8.38;2.25;;;;;;;32.48;23.83;100023.63;4457983;32;32382;-59
2022/07/20 08:05:13;;;;;;;5.35;2.00;;;;;;;32.09;24.85;100023.50;4459673;32;33016;-60
2022/07/20 08:07:40;;;;;;;9.23;2.17;;;;;;;32.23;25.02;100026.78;4458217;32;32381;-60
2022/07/20 08:10:08;;;;;;;6.25;2.20;;;;;;;32.42;24.58;100013.53;4457372;32;33943;-60
2022/07/20 08:12:37;;;;;;;6.90;2.20;;;;;;;32.42;24.44;100019.91;4468943;32;32245;-59
2022/07/20 08:15:05;;;;;;;8.70;2.78;;;;;;;32.42;24.67;100017.13;4471142;32;33090;-59
2022/07/20 08:17:33;;;;;;;7.32;2.30;;;;;;;32.09;25.66;100025.44;4457524;32;33401;-61
2022/07/20 08:20:01;;;;;;;8.15;1.87;;;;;;;32.08;25.33;100023.75;4459212;32;33859;-58
2022/07/20 08:22:28;;;;;;;10.05;2.50;;;;;;;32.34;24.79;100016.72;4465660;32;32365;-60
2022/07/20 08:24:57;;;;;;;5.68;2.30;;;;;;;32.09;25.60;100020.72;4458649;32;33367;-59
2022/07/20 08:27:24;;;;;;;12.77;2.62;;;;;;;32.16;24.56;100020.56;4457244;32;34695;-61
2022/07/20 08:29:58;;;;;;;12.77;2.55;;;;;;;32.34;24.02;100005.66;4448257;32;34769;-59
2022/07/20 08:32:26;;;;;;;10.50;2.97;;;;;;;32.52;23.85;100016.50;4472461;32;32718;-59
2022/07/20 08:34:54;;;;;;;9.73;2.60;;;;;;;32.86;23.61;100008.16;4458409;32;33374;-62
2022/07/20 08:37:21;;;;;;;7.90;2.30;;;;;;;32.46;25.26;100020.28;4461163;32;33967;-61
2022/07/20 08:39:49;;;;;;;7.03;2.15;;;;;;;32.29;24.35;100013.84;4455895;32;34044;-62
2022/07/20 08:42:17;;;;;;;7.12;2.28;;;;;;;32.83;25.07;100016.97;4459924;32;32170;-59
2022/07/20 08:44:45;;;;;;;5.60;2.08;;;;;;;32.83;24.12;100015.03;4434714;32;33154;-62
2022/07/20 08:47:14;;;;;;;5.40;2.22;;;;;;;32.89;22.81;100013.19;4447368;32;33531;-59
2022/07/20 08:49:49;;;;;;;6.87;1.98;;;;;;;33.17;23.13;100013.06;4449262;32;33791;-59
2022/07/20 08:52:17;;;;;;;5.95;2.22;;;;;;;33.10;22.73;100006.03;4450598;32;36512;-59
2022/07/20 08:54:45;;;;;;;4.47;1.95;;;;;;;33.03;23.02;100005.34;4462385;32;32253;-60
2022/07/20 08:57:16;;;;;;;5.68;1.80;;;;;;;33.27;22.15;100004.03;4453211;32;33309;-59
2022/07/20 08:59:45;;;;;;;8.63;1.98;;;;;;;33.47;21.64;100005.38;4452586;32;33124;-59
2022/07/20 09:02:13;;;;;;;7.70;2.75;;;;;;;33.56;21.57;99999.13;4435311;32;31910;-60
2022/07/20 09:04:55;;;;;;;5.97;2.17;;;;;;;33.70;22.14;99998.72;4434588;32;32834;-60
2022/07/20 09:07:38;;;;;;;3.80;1.67;;;;;;;33.38;21.21;99994.72;4451357;32;32750;-60
2022/07/20 09:10:13;;;;;;;6.62;2.12;;;;;;;33.60;21.46;99985.56;4450625;32;32782;-59
2022/07/20 09:12:52;;;;;;;4.10;1.60;;;;;;;33.62;21.39;99984.22;4434526;32;32371;-59
2022/07/20 09:15:42;;;;;;;6.93;2.00;;;;;;;34.09;20.29;99991.09;4448216;32;32226;-61
2022/07/20 09:18:27;;;;;;;7.03;1.75;;;;;;;33.90;21.11;99989.75;4464269;32;32497;-59
2022/07/20 09:21:07;;;;;;;4.62;1.62;;;;;;;33.60;20.38;99991.97;4448284;32;32713;-61
2022/07/20 09:23:41;;;;;;;8.88;2.00;;;;;;;34.35;19.62;99983.84;4451355;32;33800;-60
2022/07/20 09:26:16;;;;;;;4.32;1.60;;;;;;;34.70;19.63;99980.47;4448453;32;33326;-59
2022/07/20 09:28:48;;;;;;;6.60;2.33;;;;;;;34.99;19.02;99991.19;4448080;32;33987;-61
2022/07/20 09:31:21;;;;;;;5.57;1.80;;;;;;;34.85;19.71;99985.28;4441697;32;32957;-59
2022/07/20 09:34:08;;;;;;;7.25;1.70;;;;;;;35.04;19.38;99982.09;4427905;32;34731;-60
2022/07/20 09:36:39;;;;;;;7.05;2.62;;;;;;;35.08;19.04;99969.31;4428522;32;33578;-61
2022/07/20 09:39:18;;;;;;;7.07;1.83;;;;;;;33.58;19.99;99946.13;4427779;32;33907;-59
2022/07/20 09:41:52;;;;;;;4.22;1.50;;;;;;;34.23;19.71;99972.06;4418045;32;31350;-62
2022/07/20 09:44:25;;;;;;;7.12;1.85;;;;;;;34.34;19.14;99970.19;4416784;32;32060;-61
2022/07/20 09:46:52;;;;;;;6.00;1.50;;;;;;;34.94;18.08;99971.72;4428679;32;31926;-59
2022/07/20 09:49:28;;;;;;;6.10;1.77;;;;;;;35.71;17.68;99975.69;4418634;32;32264;-62
2022/07/20 09:51:57;;;;;;;4.70;1.58;;;;;;;35.82;17.84;99963.44;4423014;32;32189;-59
2022/07/20 09:54:46;;;;;;;5.50;1.62;;;;;;;36.20;17.61;99964.06;4418855;32;32063;-59
2022/07/20 09:57:15;;;;;;;2.22;1.17;;;;;;;36.64;16.83;99963.47;4427253;32;33477;-61
2022/07/20 09:59:47;;;;;;;7.03;1.40;;;;;;;36.34;16.22;99959.59;4419468;32;36835;-59
2022/07/20 10:02:15;;;;;;;4.55;1.60;;;;;;;36.44;16.70;99969.91;4427020;32;34888;-59
2022/07/20 10:04:44;;;;;;;5.22;1.60;;;;;;;36.73;15.70;99966.53;4425710;32;33626;-61
2022/07/20 10:07:12;;;;;;;5.37;1.70;;;;;;;36.87;15.99;99962.03;4428080;32;33103;-62
2022/07/20 10:09:40;;;;;;;3.90;1.48;;;;;;;37.20;15.36;99956.91;4421373;32;34977;-60
2022/07/20 10:12:08;;;;;;;7.18;1.70;;;;;;;37.23;16.37;99956.34;4429304;32;33496;-61
2022/07/20 10:14:38;;;;;;;6.40;1.42;;;;;;;37.16;15.67;99953.84;4436368;32;33603;-61
2022/07/20 10:17:05;;;;;;;3.45;1.70;;;;;;;37.35;16.09;99959.62;4410887;32;32864;-60
2022/07/20 10:19:46;;;;;;;4.85;1.50;;;;;;;37.45;15.58;99959.59;4418427;32;33716;-62
2022/07/20 10:22:14;;;;;;;9.00;2.08;;;;;;;37.06;15.95;99956.69;4426946;32;34303;-60
2022/07/20 10:24:44;;;;;;;3.72;1.50;;;;;;;37.53;15.74;99950.63;4426945;32;35014;-60
2022/07/20 10:27:13;;;;;;;5.07;1.85;;;;;;;37.76;15.57;99949.09;4416747;32;31953;-60
2022/07/20 10:29:46;;;;;;;3.30;1.37;;;;;;;37.62;15.48;99942.47;4418414;32;32557;-60
2022/07/20 10:32:24;;;;;;;3.20;1.58;;;;;;;37.30;15.11;99946.56;4431769;32;30967;-60
2022/07/20 10:34:54;;;;;;;3.53;1.80;;;;;;;37.83;14.68;99931.16;4442250;32;33944;-63
2022/07/20 10:37:30;;;;;;;5.60;1.75;;;;;;;37.53;15.26;99933.06;4435053;32;31948;-63
2022/07/20 10:40:08;;;;;;;12.93;2.28;;;;;;;37.47;16.12;99942.59;4442557;32;33504;-61
2022/07/20 10:42:42;;;;;;;5.22;2.00;;;;;;;37.38;15.97;99933.94;4433873;32;32789;-59
2022/07/20 10:47:46;;;;;;;3.00;1.50;;;;;;;37.66;15.84;99935.19;4439315;32;31652;-60
2022/07/20 10:50:33;;;;;;;7.35;1.50;;;;;;;37.71;15.51;99934.31;4442997;32;34050;-62
2022/07/20 10:53:10;;;;;;;6.97;1.87;;;;;;;37.55;15.86;99927.16;4432254;32;31905;-62
2022/07/20 10:55:38;;;;;;;7.53;1.83;;;;;;;37.66;15.35;99921.22;4443706;32;34134;-62
2022/07/20 10:58:14;;;;;;;3.97;1.90;;;;;;;37.55;15.27;99928.00;4432914;32;32376;-60
2022/07/20 11:00:44;;;;;;;12.35;2.10;;;;;;;37.45;15.48;99916.91;4434611;32;33686;-60
2022/07/20 11:03:27;;;;;;;7.93;2.15;;;;;;;37.40;16.04;99916.87;4434424;32;32542;-62
2022/07/20 11:06:13;;;;;;;4.15;1.37;;;;;;;37.44;15.63;99910.44;4441817;32;33773;-60
2022/07/20 11:08:44;;;;;;;4.12;1.67;;;;;;;37.15;15.81;99904.75;4442380;32;33293;-62
2022/07/20 11:11:22;;;;;;;4.68;1.52;;;;;;;36.89;16.14;99911.53;4427516;32;33821;-60
2022/07/20 11:13:50;;;;;;;3.33;1.42;;;;;;;37.46;15.37;99907.38;4439825;32;34186;-62
2022/07/20 11:16:23;;;;;;;5.65;1.87;;;;;;;37.16;15.88;99913.97;4432200;32;33368;-59
2022/07/20 11:18:52;;;;;;;5.40;1.98;;;;;;;37.16;15.79;99897.22;4440500;32;33183;-61
2022/07/20 11:21:38;;;;;;;3.40;1.50;;;;;;;36.63;15.97;99906.06;4440542;32;33920;-61
2022/07/20 11:24:29;;;;;;;4.95;1.92;;;;;;;36.27;16.46;99902.47;4442139;32;34958;-60
2022/07/20 11:27:12;;;;;;;3.20;1.65;;;;;;;37.17;15.99;99896.09;4432108;32;33384;-62
2022/07/20 11:29:49;;;;;;;4.00;1.60;;;;;;;37.81;15.75;99894.31;4445015;32;31654;-59
2022/07/20 11:32:16;;;;;;;3.97;1.65;;;;;;;37.84;15.11;99890.94;4437790;32;32520;-62
2022/07/20 11:34:53;;;;;;;6.85;1.62;;;;;;;38.12;14.67;99884.56;4427460;32;34951;-62
2022/07/20 11:37:21;;;;;;;8.82;2.08;;;;;;;37.74;14.69;99881.50;4427519;32;33294;-60
2022/07/20 11:39:49;;;;;;;4.55;1.70;;;;;;;37.17;15.70;99880.19;4422869;32;35083;-60
2022/07/20 11:42:18;;;;;;;3.60;1.65;;;;;;;37.38;15.20;99878.13;4424326;32;33803;-62
2022/07/20 11:45:01;;;;;;;3.80;1.55;;;;;;;37.66;14.91;99875.69;4426588;32;33987;-63
2022/07/20 11:47:29;;;;;;;4.57;1.60;;;;;;;37.01;15.05;99875.81;4424223;32;33538;-63
2022/07/20 11:50:08;;;;;;;5.12;1.67;;;;;;;37.17;15.46;99866.22;4422638;32;32234;-62
2022/07/20 11:52:44;;;;;;;2.83;1.52;;;;;;;36.99;15.28;99875.28;4426567;32;32265;-61